FDX1018 KMIA-KMEM
Flight info
| Callsign | FDX1018 |
|---|---|
| Flight time | N/A |
| Altitude | 30000 |
| Route | HURCN4 SMELZ Q116 GOOGY WASER VANZE3 |
| Aircraft | MD11/H-SDE1E2E3FGHIJ2J3J4J5M1RWXY/LB1D1 |
Departure
| Time | 2026-05-05 00:53 |
|---|---|
| Airport | Miami International Airport (KMIA) |
Arrival
| Time | N/A |
|---|---|
| Airport | Memphis International Airport (KMEM) |
| Time | Latitude | Longitude | Altitude | Speed | Heading |
|---|---|---|---|---|---|
| 2026-05-05 00:23 | 25.80507 | -80.29451 | 16 ft | 0 kts | 358° |
| 2026-05-05 00:41 | 25.80503 | -80.29451 | 16 ft | 2 kts | 359° |
| 2026-05-05 00:42 | 25.80488 | -80.29451 | 16 ft | 2 kts | 0° |
| 2026-05-05 00:42 | 25.80474 | -80.29451 | 16 ft | 2 kts | 359° |
| 2026-05-05 00:42 | 25.80459 | -80.29448 | 16 ft | 2 kts | 336° |
| 2026-05-05 00:42 | 25.80446 | -80.29439 | 16 ft | 2 kts | 318° |
| 2026-05-05 00:43 | 25.80437 | -80.29427 | 16 ft | 2 kts | 299° |
| 2026-05-05 00:43 | 25.80431 | -80.29412 | 16 ft | 2 kts | 281° |
| 2026-05-05 00:43 | 25.80430 | -80.29395 | 16 ft | 2 kts | 265° |
| 2026-05-05 00:43 | 25.80431 | -80.29387 | 16 ft | 0 kts | 265° |
| 2026-05-05 00:46 | 25.80431 | -80.29388 | 16 ft | 0 kts | 265° |
| 2026-05-05 00:46 | 25.80430 | -80.29404 | 16 ft | 4 kts | 267° |
| 2026-05-05 00:47 | 25.80428 | -80.29461 | 16 ft | 8 kts | 267° |
| 2026-05-05 00:47 | 25.80424 | -80.29538 | 16 ft | 11 kts | 268° |
| 2026-05-05 00:47 | 25.80421 | -80.29632 | 16 ft | 13 kts | 268° |
| 2026-05-05 00:47 | 25.80417 | -80.29741 | 16 ft | 15 kts | 268° |
| 2026-05-05 00:48 | 25.80413 | -80.29864 | 16 ft | 16 kts | 268° |
| 2026-05-05 00:48 | 25.80408 | -80.29999 | 16 ft | 18 kts | 268° |
| 2026-05-05 00:48 | 25.80403 | -80.30110 | 16 ft | 5 kts | 267° |
| 2026-05-05 00:48 | 25.80390 | -80.30138 | 16 ft | 4 kts | 212° |
| 2026-05-05 00:49 | 25.80351 | -80.30148 | 16 ft | 6 kts | 179° |
| 2026-05-05 00:49 | 25.80292 | -80.30145 | 16 ft | 10 kts | 176° |
| 2026-05-05 00:49 | 25.80212 | -80.30139 | 16 ft | 10 kts | 177° |
| 2026-05-05 00:49 | 25.80187 | -80.30138 | 16 ft | 0 kts | 177° |
| 2026-05-05 00:50 | 25.80186 | -80.30138 | 16 ft | 1 kts | 177° |
| 2026-05-05 00:51 | 25.80150 | -80.30135 | 16 ft | 9 kts | 177° |
| 2026-05-05 00:51 | 25.80105 | -80.30125 | 16 ft | 4 kts | 122° |
| 2026-05-05 00:51 | 25.80097 | -80.30108 | 16 ft | 4 kts | 124° |
| 2026-05-05 00:51 | 25.80075 | -80.30073 | 16 ft | 4 kts | 109° |
| 2026-05-05 00:52 | 25.80074 | -80.30046 | 16 ft | 3 kts | 88° |
| 2026-05-05 00:52 | 25.80075 | -80.30003 | 16 ft | 12 kts | 88° |
| 2026-05-05 00:52 | 25.80091 | -80.29655 | 16 ft | 80 kts | 88° |
| 2026-05-05 00:52 | 25.80127 | -80.28786 | 16 ft | 141 kts | 87° |
| 2026-05-05 00:53 | 25.80177 | -80.27535 | 121 ft | 175 kts | 89° |
| 2026-05-05 00:53 | 25.80196 | -80.26241 | 788 ft | 167 kts | 87° |
| 2026-05-05 00:53 | 25.80273 | -80.24959 | 1374 ft | 168 kts | 82° |
| 2026-05-05 00:53 | 25.80409 | -80.23646 | 1832 ft | 182 kts | 82° |
| 2026-05-05 00:54 | 25.80528 | -80.22143 | 2143 ft | 206 kts | 85° |
| 2026-05-05 00:54 | 25.80615 | -80.20471 | 2406 ft | 231 kts | 83° |
| 2026-05-05 00:54 | 25.80991 | -80.18699 | 3056 ft | 243 kts | 66° |
| 2026-05-05 00:54 | 25.81901 | -80.17115 | 3865 ft | 253 kts | 44° |
| 2026-05-05 00:55 | 25.83372 | -80.16009 | 4687 ft | 263 kts | 19° |
| 2026-05-05 00:55 | 25.85176 | -80.15616 | 5530 ft | 271 kts | 2° |
| 2026-05-05 00:55 | 25.87086 | -80.15597 | 6427 ft | 278 kts | 356° |
| 2026-05-05 00:55 | 25.89021 | -80.15791 | 7350 ft | 284 kts | 348° |
| 2026-05-05 00:56 | 25.90954 | -80.16255 | 8272 ft | 288 kts | 341° |
| 2026-05-05 00:56 | 25.92862 | -80.16911 | 9194 ft | 292 kts | 337° |
| 2026-05-05 00:56 | 25.94785 | -80.17640 | 10108 ft | 296 kts | 336° |
| 2026-05-05 00:56 | 25.96727 | -80.18583 | 10611 ft | 312 kts | 323° |
| 2026-05-05 00:57 | 25.98479 | -80.20107 | 10899 ft | 334 kts | 311° |
| 2026-05-05 00:57 | 25.99946 | -80.22220 | 11140 ft | 357 kts | 296° |
| 2026-05-05 00:57 | 26.01006 | -80.24820 | 11360 ft | 381 kts | 288° |
| 2026-05-05 00:57 | 26.01897 | -80.27639 | 12022 ft | 394 kts | 288° |
| 2026-05-05 00:58 | 26.02821 | -80.30527 | 12856 ft | 402 kts | 289° |
| 2026-05-05 00:58 | 26.03802 | -80.33418 | 13736 ft | 408 kts | 289° |
| 2026-05-05 00:58 | 26.04837 | -80.36364 | 14652 ft | 412 kts | 290° |
| 2026-05-05 00:58 | 26.05888 | -80.39312 | 15633 ft | 414 kts | 290° |
| 2026-05-05 00:59 | 26.06952 | -80.42276 | 16585 ft | 415 kts | 290° |
| 2026-05-05 00:59 | 26.08030 | -80.45267 | 17451 ft | 418 kts | 290° |
| 2026-05-05 00:59 | 26.09098 | -80.48236 | 18302 ft | 421 kts | 290° |
| 2026-05-05 00:59 | 26.10195 | -80.51288 | 19118 ft | 424 kts | 290° |
| 2026-05-05 01:00 | 26.11385 | -80.54296 | 19796 ft | 430 kts | 296° |
| 2026-05-05 01:00 | 26.12976 | -80.57094 | 20514 ft | 436 kts | 304° |
| 2026-05-05 01:00 | 26.14997 | -80.59647 | 21175 ft | 444 kts | 313° |
| 2026-05-05 01:00 | 26.17399 | -80.61874 | 21831 ft | 453 kts | 321° |
| 2026-05-05 01:01 | 26.20117 | -80.63710 | 22528 ft | 461 kts | 328° |
| 2026-05-05 01:01 | 26.23068 | -80.65128 | 23205 ft | 469 kts | 335° |
| 2026-05-05 01:01 | 26.26198 | -80.66287 | 23869 ft | 474 kts | 337° |
| 2026-05-05 01:01 | 26.29303 | -80.67434 | 24500 ft | 477 kts | 335° |
| 2026-05-05 01:02 | 26.32450 | -80.68713 | 25115 ft | 480 kts | 334° |
| 2026-05-05 01:02 | 26.35577 | -80.70099 | 25754 ft | 481 kts | 332° |
| 2026-05-05 01:02 | 26.38538 | -80.71764 | 26431 ft | 477 kts | 324° |
| 2026-05-05 01:02 | 26.41209 | -80.73846 | 27280 ft | 470 kts | 316° |
| 2026-05-05 01:03 | 26.43613 | -80.76304 | 28224 ft | 463 kts | 311° |
| 2026-05-05 01:03 | 26.45800 | -80.78890 | 29164 ft | 458 kts | 309° |
| 2026-05-05 01:03 | 26.47926 | -80.81515 | 29773 ft | 453 kts | 309° |
| 2026-05-05 01:04 | 26.52091 | -80.86677 | 29891 ft | 444 kts | 308° |
| 2026-05-05 01:04 | 26.58211 | -80.94427 | 29977 ft | 446 kts | 309° |
| 2026-05-05 01:05 | 26.62392 | -80.99552 | 29987 ft | 447 kts | 309° |
| 2026-05-05 01:05 | 26.66602 | -81.04670 | 29991 ft | 447 kts | 310° |
| 2026-05-05 01:06 | 26.70801 | -81.09763 | 29994 ft | 445 kts | 310° |
| 2026-05-05 01:06 | 26.74980 | -81.14836 | 29989 ft | 443 kts | 310° |
| 2026-05-05 01:07 | 26.79136 | -81.19872 | 29995 ft | 443 kts | 310° |
| 2026-05-05 01:07 | 26.83321 | -81.24950 | 29986 ft | 443 kts | 310° |
| 2026-05-05 01:08 | 26.87498 | -81.30012 | 29988 ft | 443 kts | 310° |
| 2026-05-05 01:08 | 26.91678 | -81.35077 | 29999 ft | 443 kts | 310° |
| 2026-05-05 01:09 | 26.95858 | -81.40142 | 29993 ft | 442 kts | 310° |
| 2026-05-05 01:09 | 27.00029 | -81.45190 | 29980 ft | 441 kts | 310° |
| 2026-05-05 01:10 | 27.04232 | -81.50178 | 29988 ft | 441 kts | 313° |
| 2026-05-05 01:10 | 27.09000 | -81.54535 | 30003 ft | 446 kts | 322° |
| 2026-05-05 01:11 | 27.14314 | -81.58186 | 30013 ft | 448 kts | 325° |
| 2026-05-05 01:11 | 27.19637 | -81.61795 | 30019 ft | 448 kts | 324° |
| 2026-05-05 01:12 | 27.24931 | -81.65561 | 30022 ft | 448 kts | 323° |
| 2026-05-05 01:12 | 27.30146 | -81.69326 | 30014 ft | 447 kts | 322° |
| 2026-05-05 01:13 | 27.35403 | -81.73134 | 30013 ft | 448 kts | 323° |
| 2026-05-05 01:13 | 27.40626 | -81.76917 | 30014 ft | 447 kts | 323° |
| 2026-05-05 01:14 | 27.45853 | -81.80637 | 30026 ft | 447 kts | 325° |
| 2026-05-05 01:14 | 27.51520 | -81.83689 | 30025 ft | 453 kts | 332° |
| 2026-05-05 01:15 | 27.57351 | -81.86396 | 30029 ft | 454 kts | 332° |
| 2026-05-05 01:15 | 27.63167 | -81.89176 | 30015 ft | 452 kts | 331° |
| 2026-05-05 01:16 | 27.68958 | -81.92000 | 30028 ft | 453 kts | 331° |